Time;durP1;ratioP1;P1;durP2;ratioP2;P2;SDS_P1;SDS_P2;PMS_P1;PMS_P2;Temp;Humidity;BMP_temperature;BMP_pressure;BME280_temperature;BME280_humidity;BME280_pressure;Samples;Min_cycle;Max_cycle;Signal;HPM_P1;HPM_P2
2023/07/23 00:00:36;;;;;;;1.98;1.45;;;21.60;53.70;;;;;;4975986;28;20477;-77
2023/07/23 00:03:02;;;;;;;1.45;1.15;;;21.60;53.80;;;;;;4976532;28;20023;-76
2023/07/23 00:05:28;;;;;;;2.17;1.35;;;21.60;53.70;;;;;;4993483;28;20030;-77
2023/07/23 00:07:56;;;;;;;2.20;1.50;;;21.40;72.70;;;;;;4993399;28;20026;-76
2023/07/23 00:10:22;;;;;;;1.52;1.13;;;21.50;53.80;;;;;;4993169;28;20064;-76
2023/07/23 00:12:47;;;;;;;2.72;1.42;;;21.60;53.60;;;;;;4993385;28;20058;-76
2023/07/23 00:15:13;;;;;;;4.38;1.65;;;21.50;53.60;;;;;;4993234;28;20039;-76
2023/07/23 00:17:40;;;;;;;1.20;1.10;;;21.50;53.60;;;;;;4993267;28;20030;-76
2023/07/23 00:20:07;;;;;;;3.05;1.35;;;21.50;53.60;;;;;;4993216;28;20030;-76
2023/07/23 00:22:33;;;;;;;1.48;1.35;;;21.60;72.60;;;;;;4993109;28;20049;-76
2023/07/23 00:24:59;;;;;;;2.60;1.48;;;21.70;72.60;;;;;;4993134;28;20034;-76
2023/07/23 00:27:25;;;;;;;1.58;1.30;;;21.50;53.60;;;;;;4993107;28;20053;-75
2023/07/23 00:29:50;;;;;;;1.50;1.08;;;21.50;53.50;;;;;;4993665;28;20444;-76
2023/07/23 00:32:16;;;;;;;1.75;1.48;;;21.50;53.70;;;;;;4992993;28;20018;-76
2023/07/23 00:34:42;;;;;;;1.50;1.35;;;21.50;53.70;;;;;;4992848;28;20054;-76
2023/07/23 00:37:08;;;;;;;1.60;1.50;;;21.50;53.70;;;;;;4992918;28;20392;-76
2023/07/23 00:39:34;;;;;;;1.75;1.50;;;21.40;53.60;;;;;;4992876;28;20034;-76
2023/07/23 00:41:59;;;;;;;1.38;1.17;;;21.60;73.00;;;;;;4992858;28;20034;-76
2023/07/23 00:44:26;;;;;;;1.60;1.45;;;21.50;72.90;;;;;;4992865;28;20022;-76
2023/07/23 00:46:53;;;;;;;1.30;1.00;;;21.50;53.60;;;;;;4992651;28;20033;-76
2023/07/23 00:49:20;;;;;;;1.30;1.20;;;21.50;53.60;;;;;;4975178;28;20037;-76
2023/07/23 00:51:46;;;;;;;1.25;1.15;;;21.50;53.70;;;;;;4992328;28;20030;-76
2023/07/23 00:54:13;;;;;;;1.90;1.10;;;21.40;53.70;;;;;;4992645;28;20030;-77
2023/07/23 00:56:41;;;;;;;1.30;1.20;;;21.40;53.60;;;;;;4992431;28;20049;-76
2023/07/23 00:59:08;;;;;;;1.00;0.98;;;21.30;72.90;;;;;;4993054;28;20361;-76
2023/07/23 01:01:33;;;;;;;1.35;1.23;;;21.40;53.70;;;;;;4992320;28;20026;-76
2023/07/23 01:03:59;;;;;;;1.27;1.17;;;21.40;53.70;;;;;;4992614;28;20021;-76
2023/07/23 01:06:27;;;;;;;1.23;1.13;;;21.40;53.70;;;;;;4992259;28;20380;-76
2023/07/23 01:08:55;;;;;;;1.35;1.15;;;21.40;53.70;;;;;;4992319;28;20022;-76
2023/07/23 01:11:25;;;;;;;1.55;1.20;;;21.40;53.70;;;;;;4991011;28;20070;-76
2023/07/23 01:13:52;;;;;;;1.40;1.27;;;21.40;53.60;;;;;;4992193;28;20022;-76
2023/07/23 01:16:18;;;;;;;1.40;1.30;;;21.40;53.70;;;;;;4992165;28;20117;-76
2023/07/23 01:18:44;;;;;;;1.52;1.23;;;21.40;53.70;;;;;;4992102;28;20026;-76
2023/07/23 01:21:10;;;;;;;1.75;1.33;;;21.40;53.70;;;;;;4974713;28;20481;-76
2023/07/23 01:23:36;;;;;;;1.63;1.05;;;21.40;53.70;;;;;;4991339;28;20084;-76
2023/07/23 01:26:03;;;;;;;1.60;1.10;;;21.40;53.70;;;;;;4992146;28;20030;-76
2023/07/23 01:28:29;;;;;;;1.52;1.15;;;21.40;53.70;;;;;;4992535;28;20034;-76
2023/07/23 01:30:55;;;;;;;1.63;1.52;;;21.50;72.80;;;;;;4990683;28;20066;-76
2023/07/23 01:33:22;;;;;;;1.40;1.27;;;21.40;53.70;;;;;;4991945;28;20101;-75
2023/07/23 01:35:51;;;;;;;1.23;1.13;;;21.30;53.70;;;;;;4991875;28;20039;-76
2023/07/23 01:38:17;;;;;;;1.38;1.27;;;21.10;72.50;;;;;;4974421;28;20488;-76
2023/07/23 01:40:43;;;;;;;2.22;1.48;;;21.30;53.70;;;;;;4991960;28;20526;-76
2023/07/23 01:43:09;;;;;;;1.10;1.00;;;21.30;53.70;;;;;;4991865;28;20102;-76
2023/07/23 01:45:34;;;;;;;1.13;1.02;;;21.40;53.70;;;;;;4991887;28;20073;-76
2023/07/23 01:48:00;;;;;;;1.92;1.35;;;21.50;72.90;;;;;;4991908;28;20030;-76
2023/07/23 01:50:26;;;;;;;1.30;1.20;;;21.40;53.70;;;;;;4991855;28;20416;-76
2023/07/23 01:52:51;;;;;;;1.35;1.10;;;21.30;53.70;;;;;;4991661;28;20117;-76
2023/07/23 01:55:17;;;;;;;1.38;1.27;;;21.50;73.30;;;;;;4992529;28;20046;-76
2023/07/23 01:57:43;;;;;;;2.15;1.20;;;21.60;73.40;;;;;;4991774;28;20018;-76
2023/07/23 02:00:09;;;;;;;0.98;0.88;;;21.30;53.80;;;;;;4991691;28;20080;-76
2023/07/23 02:02:34;;;;;;;1.13;0.98;;;21.30;53.80;;;;;;4991631;28;20307;-76
2023/07/23 02:05:00;;;;;;;0.98;0.90;;;21.30;53.70;;;;;;4991564;28;20031;-76
2023/07/23 02:07:26;;;;;;;1.20;1.10;;;21.30;53.70;;;;;;4991743;28;20081;-76
2023/07/23 02:09:51;;;;;;;1.08;0.98;;;21.30;53.70;;;;;;4990345;28;20026;-76
2023/07/23 02:12:17;;;;;;;1.17;1.08;;;21.30;53.80;;;;;;4991853;28;20105;-76
2023/07/23 02:14:44;;;;;;;1.42;1.27;;;21.30;53.80;;;;;;4991544;28;20109;-76
2023/07/23 02:17:10;;;;;;;2.10;1.50;;;21.30;53.80;;;;;;4991619;28;20045;-76
2023/07/23 02:19:37;;;;;;;1.67;1.33;;;21.30;53.70;;;;;;4991622;28;20030;-76
2023/07/23 02:22:03;;;;;;;1.00;0.95;;;21.30;53.70;;;;;;4974012;28;20035;-76
2023/07/23 02:24:29;;;;;;;2.53;1.42;;;21.30;53.80;;;;;;4992087;28;20433;-76
2023/07/23 02:26:54;;;;;;;1.20;1.10;;;21.30;72.90;;;;;;4991438;28;20026;-76
2023/07/23 02:29:20;;;;;;;1.13;1.00;;;21.20;53.80;;;;;;4991480;28;20096;-76
2023/07/23 02:31:46;;;;;;;1.63;1.25;;;21.30;53.80;;;;;;4991429;28;20049;-76
2023/07/23 02:34:11;;;;;;;3.45;1.20;;;21.30;53.80;;;;;;4992521;28;20050;-76
2023/07/23 02:36:37;;;;;;;1.45;1.20;;;21.20;53.70;;;;;;4995099;28;20046;-76
2023/07/23 02:39:03;;;;;;;1.63;1.40;;;21.20;53.70;;;;;;4995019;28;20033;-76
2023/07/23 02:41:29;;;;;;;2.97;1.40;;;21.20;53.80;;;;;;4994986;28;20026;-76
2023/07/23 02:43:54;;;;;;;1.55;1.10;;;21.20;53.80;;;;;;4994893;28;20027;-76
2023/07/23 02:46:20;;;;;;;1.48;1.15;;;21.20;53.90;;;;;;4977395;28;20023;-76
2023/07/23 02:48:46;;;;;;;1.77;1.15;;;21.20;53.80;;;;;;4994842;28;20034;-76
2023/07/23 02:51:11;;;;;;;1.17;0.90;;;21.20;53.80;;;;;;4995053;28;20034;-76
2023/07/23 02:53:37;;;;;;;1.27;1.17;;;21.20;53.80;;;;;;4994987;28;20050;-76
2023/07/23 02:56:03;;;;;;;0.98;0.80;;;21.20;53.80;;;;;;4994825;28;20034;-76
2023/07/23 02:58:30;;;;;;;1.23;1.13;;;21.20;53.90;;;;;;4994865;28;20048;-76
2023/07/23 03:00:56;;;;;;;1.15;0.98;;;21.20;53.80;;;;;;4994908;28;20077;-76
2023/07/23 03:03:22;;;;;;;1.20;1.10;;;;;;;;;;4994651;28;20054;-76
2023/07/23 03:05:47;;;;;;;1.23;1.08;;;21.20;53.30;;;;;;4994480;28;20041;-76
2023/07/23 03:08:13;;;;;;;1.30;1.00;;;21.20;54.00;;;;;;4994518;28;20026;-76
2023/07/23 03:10:42;;;;;;;1.20;0.90;;;21.20;53.90;;;;;;4994740;28;20023;-76
2023/07/23 03:13:09;;;;;;;1.40;1.27;;;21.20;53.80;;;;;;4994400;28;20481;-76
2023/07/23 03:15:34;;;;;;;1.15;1.05;;;21.10;53.80;;;;;;4994235;28;20370;-76
2023/07/23 03:18:01;;;;;;;1.73;1.05;;;21.10;53.90;;;;;;4976753;28;20085;-76
2023/07/23 03:20:34;;;;;;;1.17;1.00;;;21.20;53.90;;;;;;4993204;28;20400;-76
2023/07/23 03:23:00;;;;;;;1.25;1.15;;;21.20;73.00;;;;;;4994214;28;20366;-84
2023/07/23 03:25:25;;;;;;;1.30;0.90;;;21.10;53.80;;;;;;4994228;28;20097;-83
2023/07/23 03:27:51;;;;;;;1.10;1.00;;;21.10;53.80;;;;;;4994361;28;20023;-83
2023/07/23 03:30:18;;;;;;;1.20;1.05;;;21.10;53.90;;;;;;4976610;28;20030;-83
2023/07/23 03:32:44;;;;;;;1.40;1.30;;;22.30;54.50;;;;;;4994287;28;20409;-83
2023/07/23 03:35:09;;;;;;;1.88;1.40;;;20.80;73.00;;;;;;4993811;28;20069;-83
2023/07/23 03:37:35;;;;;;;1.40;1.20;;;21.10;53.90;;;;;;4993939;28;20432;-83
2023/07/23 03:40:01;;;;;;;1.40;1.30;;;19.10;71.90;;;;;;4993990;28;20033;-83
2023/07/23 03:42:27;;;;;;;2.55;1.35;;;21.30;73.30;;;;;;4994167;28;20026;-83
2023/07/23 03:44:53;;;;;;;1.33;0.93;;;21.10;54.00;;;;;;4993781;28;20106;-82
2023/07/23 03:47:19;;;;;;;2.13;0.90;;;21.10;53.90;;;;;;4993265;28;20125;-83
2023/07/23 03:49:46;;;;;;;1.10;1.00;;;21.10;53.90;;;;;;4994469;28;20098;-83
2023/07/23 03:52:12;;;;;;;1.90;1.10;;;21.10;53.90;;;;;;4993338;28;20042;-83
2023/07/23 03:54:39;;;;;;;1.45;1.35;;;21.10;53.90;;;;;;4993980;28;20038;-82
2023/07/23 03:57:06;;;;;;;1.73;1.20;;;21.10;54.00;;;;;;4993723;28;20080;-82
2023/07/23 03:59:37;;;;;;;2.80;1.35;;;21.10;54.00;;;;;;4993447;28;20068;-82
2023/07/23 04:02:04;;;;;;;1.80;1.08;;;21.10;54.20;;;;;;4993337;28;20054;-82
2023/07/23 04:04:31;;;;;;;1.85;1.52;;;21.10;54.10;;;;;;4993283;28;20097;-82
2023/07/23 04:06:57;;;;;;;2.15;1.30;;;21.10;54.20;;;;;;4993437;28;20392;-82
2023/07/23 04:09:22;;;;;;;1.42;1.13;;;21.00;54.20;;;;;;4993366;28;20102;-82
2023/07/23 04:11:48;;;;;;;1.50;1.23;;;21.10;54.80;;;;;;4994052;28;20026;-83
2023/07/23 04:14:14;;;;;;;1.50;1.05;;;21.00;54.20;;;;;;4993371;28;20026;-82
2023/07/23 04:16:39;;;;;;;2.15;1.15;;;21.00;54.20;;;;;;4993072;28;20088;-83
2023/07/23 04:19:05;;;;;;;1.65;1.20;;;21.00;54.20;;;;;;4993694;28;20014;-81
2023/07/23 04:21:31;;;;;;;1.85;1.50;;;21.00;54.20;;;;;;4993121;28;20401;-83
2023/07/23 04:23:57;;;;;;;3.33;1.50;;;21.00;54.30;;;;;;4993118;28;20171;-82
2023/07/23 04:26:26;;;;;;;1.63;1.23;;;21.00;54.30;;;;;;4993016;28;20027;-82
2023/07/23 04:28:52;;;;;;;2.67;1.42;;;21.30;73.80;;;;;;4993111;28;20101;-83
2023/07/23 04:31:18;;;;;;;2.78;1.58;;;21.90;54.90;;;;;;4993088;28;20030;-76
2023/07/23 04:33:44;;;;;;;2.30;1.63;;;21.00;54.30;;;;;;4992728;28;20022;-76
2023/07/23 04:36:12;;;;;;;1.67;1.38;;;21.00;54.40;;;;;;4993048;28;20041;-76
2023/07/23 04:38:39;;;;;;;1.80;1.20;;;21.10;73.60;;;;;;4975354;28;20022;-76
2023/07/23 04:41:05;;;;;;;1.98;1.45;;;21.90;54.90;;;;;;4992618;28;20531;-76
2023/07/23 04:43:32;;;;;;;1.90;1.70;;;21.00;54.40;;;;;;4992731;28;20064;-76
2023/07/23 04:45:58;;;;;;;3.35;1.65;;;20.90;73.70;;;;;;4992583;28;20026;-76
2023/07/23 04:48:25;;;;;;;2.38;1.50;;;;;;;;;;4993001;28;20026;-76
2023/07/23 04:51:02;;;;;;;2.42;1.50;;;21.00;54.00;;;;;;4992693;28;20166;-76
2023/07/23 04:53:28;;;;;;;5.05;1.77;;;21.00;54.50;;;;;;4987777;28;20470;-76
2023/07/23 04:55:55;;;;;;;1.73;1.48;;;20.00;54.20;;;;;;4971662;28;20039;-76
2023/07/23 04:58:21;;;;;;;1.73;1.60;;;21.00;54.70;;;;;;4972298;28;20027;-83
2023/07/23 05:00:47;;;;;;;2.95;1.83;;;20.90;54.60;;;;;;4973168;28;20030;-83
2023/07/23 05:03:13;;;;;;;3.20;1.75;;;21.00;54.80;;;;;;4973172;28;20022;-82
2023/07/23 05:05:45;;;;;;;4.03;1.73;;;21.00;54.80;;;;;;4973343;28;20031;-82
2023/07/23 05:08:11;;;;;;;2.42;1.77;;;21.00;54.80;;;;;;4973240;28;20027;-82
2023/07/23 05:10:37;;;;;;;3.53;1.83;;;21.00;74.10;;;;;;4973267;28;20037;-82
2023/07/23 05:13:03;;;;;;;3.20;1.95;;;20.90;54.90;;;;;;4972820;28;20023;-82
2023/07/23 05:15:29;;;;;;;3.83;2.22;;;20.90;54.70;;;;;;4973515;28;20031;-82
2023/07/23 05:17:54;;;;;;;2.42;1.85;;;21.00;55.40;;;;;;4972945;28;20030;-82
2023/07/23 05:20:20;;;;;;;3.03;1.90;;;21.00;54.80;;;;;;4972834;28;20031;-82
2023/07/23 05:22:46;;;;;;;3.53;2.13;;;;;;;;;;4971459;28;20122;-81
2023/07/23 05:25:12;;;;;;;1.88;1.73;;;20.90;54.20;;;;;;4972758;28;20111;-81
2023/07/23 05:27:38;;;;;;;3.75;1.80;;;21.00;55.00;;;;;;4972762;28;20105;-81
2023/07/23 05:30:04;;;;;;;4.03;1.90;;;20.60;74.00;;;;;;4972776;28;20089;-81
2023/07/23 05:32:31;;;;;;;2.50;2.00;;;20.90;55.00;;;;;;4972783;28;20027;-81
2023/07/23 05:34:56;;;;;;;1.95;1.75;;;20.90;55.10;;;;;;4971314;28;20037;-81
2023/07/23 05:37:24;;;;;;;4.55;2.30;;;20.90;55.10;;;;;;4972634;28;20034;-81
2023/07/23 05:39:49;;;;;;;3.38;2.28;;;20.60;74.30;;;;;;4971438;28;20034;-81
2023/07/23 05:42:15;;;;;;;3.97;2.10;;;20.90;55.40;;;;;;4971350;28;20027;-81
2023/07/23 05:44:40;;;;;;;2.72;2.10;;;20.90;55.10;;;;;;4973141;28;20114;-81
2023/07/23 05:47:07;;;;;;;2.45;2.15;;;20.90;55.10;;;;;;4972618;28;20031;-81
2023/07/23 05:49:33;;;;;;;2.15;1.58;;;20.90;55.10;;;;;;4972674;28;20034;-81
2023/07/23 05:51:59;;;;;;;2.60;2.20;;;20.90;55.00;;;;;;4975618;28;20671;-81
2023/07/23 05:54:25;;;;;;;2.78;1.90;;;20.90;55.10;;;;;;4992035;28;20029;-81
2023/07/23 05:56:51;;;;;;;2.70;2.45;;;21.10;74.40;;;;;;4991885;28;20125;-80
2023/07/23 05:59:16;;;;;;;2.08;1.70;;;20.90;55.20;;;;;;4991875;28;20065;-80
2023/07/23 06:01:42;;;;;;;3.83;2.15;;;20.90;55.20;;;;;;4991891;28;20030;-81
2023/07/23 06:04:08;;;;;;;2.72;2.03;;;20.90;55.10;;;;;;4992188;28;20026;-81
2023/07/23 06:06:34;;;;;;;1.83;1.73;;;20.60;74.40;;;;;;4991895;28;20497;-80
2023/07/23 06:09:01;;;;;;;3.40;2.38;;;20.90;55.20;;;;;;4993011;28;20501;-81
2023/07/23 06:11:27;;;;;;;4.05;2.13;;;21.00;74.40;;;;;;4995740;28;20109;-81
2023/07/23 06:13:53;;;;;;;3.65;2.25;;;20.90;55.10;;;;;;4996461;28;20113;-81
2023/07/23 06:16:19;;;;;;;4.78;2.53;;;20.90;55.20;;;;;;4995981;28;20396;-81
2023/07/23 06:18:45;;;;;;;2.97;2.22;;;21.00;74.50;;;;;;4995791;28;20026;-80
2023/07/23 06:21:11;;;;;;;3.22;2.17;;;20.90;55.20;;;;;;4995838;28;20388;-81
2023/07/23 06:23:37;;;;;;;2.30;2.08;;;20.90;55.20;;;;;;4995793;28;20105;-81
2023/07/23 06:26:03;;;;;;;3.50;2.00;;;20.90;55.50;;;;;;4995844;28;20046;-82
2023/07/23 06:28:30;;;;;;;3.13;2.53;;;20.90;74.80;;;;;;4995887;28;20053;-82
2023/07/23 06:30:56;;;;;;;4.35;2.70;;;20.90;55.60;;;;;;4995341;28;20015;-82
2023/07/23 06:33:23;;;;;;;2.58;2.38;;;20.90;55.80;;;;;;4995674;28;20045;-82
2023/07/23 06:35:49;;;;;;;2.55;2.20;;;20.90;55.70;;;;;;4995129;28;20023;-82
2023/07/23 06:38:15;;;;;;;3.10;2.53;;;20.90;55.60;;;;;;4995279;28;20050;-82
2023/07/23 06:40:46;;;;;;;3.28;2.28;;;20.90;55.60;;;;;;4995851;28;20035;-83
2023/07/23 06:43:11;;;;;;;;;;;20.90;55.50;;;;;;4995587;28;20026;-78
2023/07/23 06:45:38;;;;;;;2.33;2.05;;;21.00;74.90;;;;;;4995007;28;20048;-78
2023/07/23 06:48:04;;;;;;;2.35;2.15;;;20.80;55.40;;;;;;4995031;28;20029;-78
2023/07/23 06:50:32;;;;;;;2.33;2.13;;;21.00;75.00;;;;;;4995074;28;20030;-78
2023/07/23 06:52:58;;;;;;;3.08;2.35;;;20.90;56.10;;;;;;4994731;28;20057;-78
2023/07/23 06:55:24;;;;;;;3.10;2.15;;;20.90;55.60;;;;;;4994869;28;20042;-78
2023/07/23 06:57:49;;;;;;;2.95;2.63;;;20.90;55.50;;;;;;4994929;28;20077;-80
2023/07/23 07:00:15;;;;;;;3.10;2.50;;;20.90;55.50;;;;;;4994776;28;20034;-76
2023/07/23 07:02:44;;;;;;;3.45;2.58;;;20.90;56.10;;;;;;4994481;28;20391;-77
2023/07/23 07:05:10;;;;;;;2.25;2.03;;;20.90;55.50;;;;;;4994586;28;20076;-77
2023/07/23 07:07:37;;;;;;;3.05;2.55;;;20.90;55.50;;;;;;4994686;28;20477;-81
2023/07/23 07:10:05;;;;;;;3.00;2.70;;;20.90;55.80;;;;;;4995165;28;20081;-80
2023/07/23 07:12:31;;;;;;;4.15;2.38;;;20.90;74.80;;;;;;4999513;28;20018;-85
2023/07/23 07:14:57;;;;;;;3.15;2.35;;;20.80;55.60;;;;;;4997486;28;20065;-79
2023/07/23 07:17:23;;;;;;;3.65;2.15;;;21.10;75.20;;;;;;4994285;28;20401;-82
2023/07/23 07:19:48;;;;;;;4.32;2.47;;;20.80;55.90;;;;;;4994212;28;20031;-81
2023/07/23 07:22:15;;;;;;;2.63;2.10;;;20.90;55.60;;;;;;4993838;28;20488;-79
2023/07/23 07:24:41;;;;;;;4.82;2.60;;;20.90;55.80;;;;;;4994166;28;20027;-79
2023/07/23 07:27:09;;;;;;;2.58;2.10;;;20.90;55.70;;;;;;4994203;28;20359;-87
2023/07/23 07:29:39;;;;;;;2.45;2.25;;;20.90;55.90;;;;;;4994350;28;20104;-81
2023/07/23 07:32:07;;;;;;;4.28;2.38;;;20.90;56.00;;;;;;4994735;28;20370;-91
2023/07/23 07:34:33;;;;;;;2.60;2.40;;;20.80;55.80;;;;;;4994948;28;20358;-88
2023/07/23 07:36:59;;;;;;;3.58;2.97;;;20.80;56.00;;;;;;4994254;28;20061;-89
2023/07/23 07:39:26;;;;;;;3.78;2.60;;;20.80;56.00;;;;;;4994407;28;20024;-85
2023/07/23 07:41:53;;;;;;;2.65;2.45;;;20.80;56.10;;;;;;4994495;28;20026;-80
2023/07/23 07:44:20;;;;;;;3.20;2.90;;;20.80;56.20;;;;;;4993903;28;20028;-84
2023/07/23 07:46:45;;;;;;;3.92;2.65;;;20.90;56.30;;;;;;4976734;28;20022;-87
2023/07/23 07:49:11;;;;;;;2.40;2.15;;;21.00;75.50;;;;;;4993978;28;20030;-90
2023/07/23 07:51:38;;;;;;;3.00;2.30;;;20.80;56.20;;;;;;4976853;28;20042;-83
2023/07/23 07:54:04;;;;;;;3.00;2.45;;;20.90;56.40;;;;;;4957071;28;20129;-75
2023/07/23 07:56:30;;;;;;;3.08;2.42;;;20.80;56.20;;;;;;4974889;28;20118;-84
2023/07/23 07:58:56;;;;;;;2.97;2.10;;;21.00;75.70;;;;;;4974584;28;20027;-80
2023/07/23 08:01:22;;;;;;;2.28;2.08;;;20.80;56.30;;;;;;4974264;28;20031;-83
2023/07/23 08:03:48;;;;;;;3.03;2.67;;;20.80;56.40;;;;;;4974577;28;20030;-83
2023/07/23 08:06:14;;;;;;;4.00;2.72;;;20.90;56.40;;;;;;4956717;28;20105;-79
2023/07/23 08:08:41;;;;;;;3.35;2.47;;;21.00;75.90;;;;;;4974167;28;20477;-79
2023/07/23 08:11:08;;;;;;;3.20;2.20;;;20.80;56.40;;;;;;4974286;28;20027;-78
2023/07/23 08:13:37;;;;;;;2.53;2.10;;;20.80;56.60;;;;;;4974009;28;20130;-77
2023/07/23 08:16:04;;;;;;;2.70;2.50;;;20.80;56.50;;;;;;4956446;28;20045;-76
2023/07/23 08:18:30;;;;;;;2.75;2.55;;;20.80;56.70;;;;;;4973905;28;20390;-77
2023/07/23 08:20:57;;;;;;;2.92;2.53;;;;;;;;;;4973824;28;20473;-77
2023/07/23 08:23:26;;;;;;;3.72;2.70;;;20.60;76.00;;;;;;4956393;28;20082;-77
2023/07/23 08:25:56;;;;;;;2.53;2.30;;;20.80;56.80;;;;;;4973903;28;20473;-77
2023/07/23 08:28:27;;;;;;;2.83;2.00;;;20.80;56.80;;;;;;4973703;28;20110;-77
2023/07/23 08:30:55;;;;;;;2.80;2.17;;;20.80;56.90;;;;;;4973669;28;20031;-77
2023/07/23 08:33:24;;;;;;;2.92;2.40;;;20.80;57.30;;;;;;4973379;28;20031;-77
2023/07/23 08:35:50;;;;;;;3.38;2.50;;;20.80;57.10;;;;;;4973541;28;20094;-77
2023/07/23 08:38:16;;;;;;;2.53;2.33;;;20.80;57.10;;;;;;4973589;28;20393;-77
2023/07/23 08:40:44;;;;;;;3.20;2.53;;;20.80;57.10;;;;;;4973488;28;20027;-77
2023/07/23 08:43:55;;;;;;;2.50;2.30;;;20.90;57.20;;;;;;4973537;28;20021;-78
2023/07/23 08:46:25;;;;;;;3.22;2.53;;;20.80;57.10;;;;;;4953794;28;20047;-76
2023/07/23 08:49:03;;;;;;;;;;;20.80;57.30;;;;;;4973825;28;20229;-77
2023/07/23 08:51:49;;;;;;;2.90;2.60;;;20.90;76.90;;;;;;4960419;28;19913;-75
2023/07/23 08:54:16;;;;;;;3.00;2.38;;;20.80;57.40;;;;;;4992639;28;20038;-76
2023/07/23 08:56:43;;;;;;;3.03;2.20;;;20.90;57.60;;;;;;4992452;28;20061;-76
2023/07/23 08:59:10;;;;;;;2.75;2.53;;;20.90;57.50;;;;;;4992904;28;20026;-76
2023/07/23 09:01:41;;;;;;;2.55;2.35;;;20.80;57.50;;;;;;4993240;28;20030;-76
2023/07/23 09:04:10;;;;;;;3.03;2.30;;;20.80;57.50;;;;;;4992790;28;20026;-76
2023/07/23 09:06:36;;;;;;;2.65;2.38;;;20.90;57.60;;;;;;4992478;28;20080;-76
2023/07/23 09:09:04;;;;;;;2.80;2.45;;;20.80;57.60;;;;;;4992472;28;20030;-76
2023/07/23 09:11:30;;;;;;;2.50;2.30;;;21.80;58.00;;;;;;4992396;28;20076;-76
2023/07/23 09:14:08;;;;;;;2.47;2.28;;;20.80;57.60;;;;;;4974950;28;20041;-74
2023/07/23 09:16:41;;;;;;;2.83;2.50;;;20.80;57.60;;;;;;4992211;28;20030;-78
2023/07/23 09:19:12;;;;;;;2.40;2.20;;;20.90;57.70;;;;;;4974858;28;20338;-77
2023/07/23 09:21:39;;;;;;;2.38;2.17;;;20.90;58.20;;;;;;4992342;28;20061;-76
2023/07/23 09:24:07;;;;;;;2.50;2.28;;;20.90;58.40;;;;;;4992199;28;20462;-77
2023/07/23 09:26:36;;;;;;;2.00;1.85;;;20.90;58.00;;;;;;4974621;28;20027;-76
2023/07/23 09:29:07;;;;;;;2.22;1.83;;;20.90;57.60;;;;;;4990927;28;20066;-76
2023/07/23 09:31:34;;;;;;;3.05;2.75;;;20.90;58.10;;;;;;4992683;28;20334;-78
2023/07/23 09:34:01;;;;;;;2.55;2.30;;;20.90;58.10;;;;;;4992410;28;20485;-79
2023/07/23 09:36:28;;;;;;;2.42;2.22;;;20.90;58.20;;;;;;4974593;28;20086;-79
2023/07/23 09:39:03;;;;;;;2.55;2.17;;;20.80;77.40;;;;;;4974592;28;20023;-79
2023/07/23 09:41:38;;;;;;;2.60;2.40;;;20.80;58.20;;;;;;4992044;28;20162;-77
2023/07/23 09:44:09;;;;;;;2.03;1.80;;;20.90;58.00;;;;;;4994983;28;20022;-77
2023/07/23 09:46:36;;;;;;;2.53;2.33;;;20.90;58.30;;;;;;4998538;28;20033;-73
2023/07/23 09:49:03;;;;;;;3.25;2.67;;;;;;;;;;4998917;28;20146;-74
2023/07/23 09:51:32;;;;;;;2.17;1.98;;;21.80;78.30;;;;;;4998530;28;20105;-75
2023/07/23 09:54:02;;;;;;;2.40;2.00;;;20.90;58.30;;;;;;4979107;28;20307;-81
2023/07/23 09:56:29;;;;;;;2.95;2.00;;;20.90;58.30;;;;;;4978977;28;20970;-78
2023/07/23 09:58:57;;;;;;;2.25;2.00;;;20.90;58.40;;;;;;4979375;28;20384;-76
2023/07/23 10:01:24;;;;;;;2.30;2.10;;;20.90;58.30;;;;;;4979364;28;20070;-76
2023/07/23 10:03:50;;;;;;;2.50;1.63;;;20.90;58.40;;;;;;4979204;28;20027;-75
2023/07/23 10:06:24;;;;;;;2.58;2.05;;;20.90;58.20;;;;;;4979419;28;20094;-76
2023/07/23 10:08:49;;;;;;;4.20;2.05;;;21.30;78.10;;;;;;4979347;28;20031;-74
2023/07/23 10:11:17;;;;;;;2.95;1.90;;;21.00;58.30;;;;;;4979012;28;20021;-76
2023/07/23 10:13:47;;;;;;;3.05;2.28;;;20.90;58.30;;;;;;4978860;28;20050;-75
2023/07/23 10:16:21;;;;;;;4.03;2.10;;;20.90;58.30;;;;;;4979099;28;20114;-77
2023/07/23 10:18:49;;;;;;;2.15;1.95;;;21.00;58.60;;;;;;4979369;28;20043;-76
2023/07/23 10:21:16;;;;;;;2.80;2.55;;;21.00;58.50;;;;;;4979288;28;20042;-76
2023/07/23 10:23:43;;;;;;;4.35;2.58;;;21.00;58.90;;;;;;4979216;28;20031;-76
2023/07/23 10:26:25;;;;;;;2.63;2.10;;;21.00;58.80;;;;;;4979472;28;20097;-76
2023/07/23 10:29:09;;;;;;;2.53;2.05;;;21.00;58.90;;;;;;4979116;28;20547;-75
2023/07/23 10:31:35;;;;;;;2.22;2.03;;;21.00;58.80;;;;;;4979382;28;20077;-75
2023/07/23 10:34:21;;;;;;;2.33;2.13;;;21.10;59.10;;;;;;4978856;28;20106;-73
2023/07/23 10:37:19;;;;;;;3.28;2.50;;;21.00;59.00;;;;;;4978778;28;20043;-73
2023/07/23 10:39:46;;;;;;;2.30;2.10;;;21.00;58.80;;;;;;4979150;28;20029;-73
2023/07/23 10:42:37;;;;;;;2.83;2.15;;;21.00;58.80;;;;;;4979201;28;20026;-72
2023/07/23 10:45:21;;;;;;;2.53;2.33;;;21.10;58.70;;;;;;4978881;28;20038;-74
2023/07/23 10:47:58;;;;;;;2.38;2.17;;;21.70;59.20;;;;;;4979044;28;20035;-72
2023/07/23 10:50:27;;;;;;;3.17;2.10;;;21.10;59.00;;;;;;4978997;28;20030;-72
2023/07/23 10:53:04;;;;;;;2.42;2.22;;;21.10;59.00;;;;;;4979046;28;20120;-75
2023/07/23 10:55:50;;;;;;;2.45;2.22;;;21.10;58.90;;;;;;4977365;28;20481;-76
2023/07/23 10:58:21;;;;;;;3.05;2.75;;;21.10;59.00;;;;;;4976010;28;20629;-76
2023/07/23 11:00:52;;;;;;;2.72;2.45;;;21.10;59.10;;;;;;4975910;28;20030;-74
2023/07/23 11:03:18;;;;;;;;;;;21.10;59.20;;;;;;4976462;28;20165;-74
2023/07/23 11:05:45;;;;;;;2.95;2.72;;;21.10;59.00;;;;;;4975949;28;19984;-74
2023/07/23 11:08:14;;;;;;;3.05;2.50;;;21.10;59.30;;;;;;4975723;28;20022;-74
2023/07/23 11:10:53;;;;;;;2.67;2.47;;;21.10;59.40;;;;;;4975324;28;20492;-74
2023/07/23 11:13:21;;;;;;;2.80;2.60;;;21.10;59.10;;;;;;4975388;28;20042;-73
2023/07/23 11:15:47;;;;;;;3.30;2.78;;;21.10;59.30;;;;;;4975644;28;20049;-80
2023/07/23 11:18:13;;;;;;;3.00;2.70;;;21.10;59.60;;;;;;4975644;28;20380;-72
2023/07/23 11:20:47;;;;;;;3.15;2.53;;;21.10;59.90;;;;;;4975450;28;20027;-74
2023/07/23 11:23:14;;;;;;;3.42;2.28;;;21.20;59.70;;;;;;4975698;28;20022;-74
2023/07/23 11:25:40;;;;;;;6.70;2.53;;;21.20;59.80;;;;;;4975256;28;20019;-74
2023/07/23 11:28:08;;;;;;;3.67;2.33;;;21.30;59.90;;;;;;4975116;28;20389;-72
2023/07/23 11:30:34;;;;;;;2.58;2.30;;;21.40;59.90;;;;;;4974985;28;20488;-74
2023/07/23 11:33:02;;;;;;;4.43;2.70;;;21.40;60.00;;;;;;4975081;28;20126;-74
2023/07/23 11:35:28;;;;;;;3.20;2.42;;;21.40;60.00;;;;;;4975078;28;20023;-72
2023/07/23 11:37:54;;;;;;;2.97;2.50;;;21.40;59.90;;;;;;4975050;28;20485;-73
2023/07/23 11:40:21;;;;;;;3.58;2.25;;;21.50;60.00;;;;;;4975171;28;20038;-72
2023/07/23 11:42:48;;;;;;;2.67;2.22;;;21.40;60.10;;;;;;4974984;28;20029;-73
2023/07/23 11:45:14;;;;;;;5.03;3.05;;;21.50;60.50;;;;;;4974921;28;20109;-73
2023/07/23 11:47:53;;;;;;;3.33;2.70;;;21.50;60.40;;;;;;4975200;28;20023;-72
2023/07/23 11:50:20;;;;;;;2.85;2.40;;;21.50;60.90;;;;;;4974917;28;20520;-73
2023/07/23 11:52:47;;;;;;;2.63;2.20;;;21.50;60.90;;;;;;4974766;28;20046;-75
2023/07/23 11:55:26;;;;;;;2.80;2.60;;;21.50;60.90;;;;;;4974687;28;20500;-72
2023/07/23 11:57:57;;;;;;;2.42;2.05;;;21.60;60.50;;;;;;4975479;28;20027;-82
2023/07/23 12:00:28;;;;;;;2.60;2.40;;;21.70;60.50;;;;;;4974556;28;20027;-72
2023/07/23 12:02:54;;;;;;;2.60;2.40;;;21.80;60.30;;;;;;4974655;28;20421;-73
2023/07/23 12:05:20;;;;;;;3.22;2.55;;;21.90;60.10;;;;;;4974768;28;20023;-73
2023/07/23 12:07:46;;;;;;;2.42;2.22;;;22.00;59.90;;;;;;4974062;28;20054;-72
2023/07/23 12:10:15;;;;;;;2.50;2.30;;;22.00;60.10;;;;;;4974441;28;20065;-72
2023/07/23 12:12:47;;;;;;;2.47;2.20;;;22.00;60.00;;;;;;4974436;28;20023;-72
2023/07/23 12:15:15;;;;;;;3.38;2.25;;;22.00;60.00;;;;;;4974179;28;20037;-71
2023/07/23 12:17:41;;;;;;;2.58;2.38;;;22.00;60.50;;;;;;4974481;28;20031;-71
2023/07/23 12:20:11;;;;;;;2.35;2.05;;;22.00;60.40;;;;;;4974144;28;20389;-72
2023/07/23 12:22:54;;;;;;;2.40;2.20;;;22.00;60.50;;;;;;4974161;28;20038;-73
2023/07/23 12:25:21;;;;;;;3.17;2.30;;;22.00;60.70;;;;;;4974153;28;20046;-73
2023/07/23 12:27:47;;;;;;;2.42;2.22;;;22.00;60.60;;;;;;4974460;28;20398;-73
2023/07/23 12:30:14;;;;;;;2.25;2.05;;;22.00;61.20;;;;;;4974021;28;20026;-73
2023/07/23 12:32:40;;;;;;;2.08;1.88;;;22.00;61.10;;;;;;4973853;28;20027;-72
2023/07/23 12:35:07;;;;;;;2.38;2.17;;;22.00;60.70;;;;;;4974136;28;20022;-73
2023/07/23 12:37:36;;;;;;;2.92;2.30;;;22.00;61.00;;;;;;4940774;28;20042;-73
2023/07/23 12:40:07;;;;;;;2.65;2.10;;;22.00;61.00;;;;;;4973146;28;20035;-73
2023/07/23 12:42:33;;;;;;;3.08;2.55;;;22.00;61.60;;;;;;4973917;28;20022;-74
2023/07/23 12:45:00;;;;;;;4.25;1.95;;;22.00;61.50;;;;;;4974061;28;20046;-73
2023/07/23 12:47:28;;;;;;;2.17;2.05;;;22.00;61.60;;;;;;4973818;28;20033;-73
2023/07/23 12:49:56;;;;;;;2.22;2.03;;;22.00;61.60;;;;;;4973606;28;20026;-74
2023/07/23 12:52:22;;;;;;;2.72;1.92;;;22.00;61.60;;;;;;4973261;28;20046;-72